aviador You're here:

KDBQ Decoded Metar

DUBUQUE in IA, USA
Report Time2017-10-20 14:53:00
UTC Time2017-10-20 15:47:28
Flight Rules vfr VFR
Wind210° at 11 kt
W.Decomp.*RWY 18: 9.8 kt HW 5.0 kt RCW
RWY 13: 2.5 kt HW 10.7 kt RCW
W.Rank210° ranks 4
Current wind is above 210° avg. (8.7)
Visibility9999 m
Phenomena:N/A
Clouds:N/A
Expected CloudBase > 2,000 ft AGL from Temp-Dew spread
CeilingNone
Temp16°C (ISA +3)
Dew Point11°C (72% RH)
AAT12.3°C
QNH1020 hPa
Density Alt1,391 ft
Elevation1,077 ft
Report Wrong Elevation
Raw Report
KDBQ 201453Z 21011KT 10SM CLR 16/11 A3011 RMK AO2 SLP196 T01560111
51005=

Extra information for KDBQ:More info

Metar Taf Metar & Taf Last 4 Metars F.Rules Stats Wind Profile Meteogram Temp Stats Airport Information Weather charts Add Link Nearby VenuesMetar ALERT Operation Metar Decoded Social comments

AIRNAV info for KDBQ